sensor_id;sensor_type;location;lat;lon;timestamp;P1;durP1;ratioP1;P2;durP2;ratioP2
4424;SDS011;2225;53.568;13.266;2023-07-16T00:00:02;8.03;;;4.10;;
4424;SDS011;2225;53.568;13.266;2023-07-16T00:02:31;11.33;;;4.20;;
4424;SDS011;2225;53.568;13.266;2023-07-16T00:04:58;8.20;;;4.20;;
4424;SDS011;2225;53.568;13.266;2023-07-16T00:07:25;14.10;;;4.57;;
4424;SDS011;2225;53.568;13.266;2023-07-16T00:09:52;8.43;;;4.00;;
4424;SDS011;2225;53.568;13.266;2023-07-16T00:12:19;7.93;;;4.10;;
4424;SDS011;2225;53.568;13.266;2023-07-16T00:14:47;7.80;;;4.23;;
4424;SDS011;2225;53.568;13.266;2023-07-16T00:17:14;10.43;;;4.77;;
4424;SDS011;2225;53.568;13.266;2023-07-16T00:19:41;15.00;;;4.10;;
4424;SDS011;2225;53.568;13.266;2023-07-16T00:22:08;10.93;;;5.10;;
4424;SDS011;2225;53.568;13.266;2023-07-16T00:24:35;9.20;;;4.40;;
4424;SDS011;2225;53.568;13.266;2023-07-16T00:27:02;8.07;;;3.87;;
4424;SDS011;2225;53.568;13.266;2023-07-16T00:29:30;9.10;;;4.13;;
4424;SDS011;2225;53.568;13.266;2023-07-16T00:31:57;12.63;;;4.20;;
4424;SDS011;2225;53.568;13.266;2023-07-16T00:34:24;9.30;;;4.53;;
4424;SDS011;2225;53.568;13.266;2023-07-16T00:36:51;9.90;;;4.20;;
4424;SDS011;2225;53.568;13.266;2023-07-16T00:39:18;7.53;;;3.90;;
4424;SDS011;2225;53.568;13.266;2023-07-16T00:41:46;11.87;;;4.50;;
4424;SDS011;2225;53.568;13.266;2023-07-16T00:44:13;9.23;;;4.57;;
4424;SDS011;2225;53.568;13.266;2023-07-16T00:46:40;9.53;;;5.10;;
4424;SDS011;2225;53.568;13.266;2023-07-16T00:49:07;8.57;;;4.00;;
4424;SDS011;2225;53.568;13.266;2023-07-16T00:51:34;8.17;;;4.50;;
4424;SDS011;2225;53.568;13.266;2023-07-16T00:54:01;9.57;;;4.47;;
4424;SDS011;2225;53.568;13.266;2023-07-16T00:56:29;9.67;;;4.90;;
4424;SDS011;2225;53.568;13.266;2023-07-16T00:58:57;9.87;;;4.63;;
4424;SDS011;2225;53.568;13.266;2023-07-16T01:01:24;9.73;;;4.97;;
4424;SDS011;2225;53.568;13.266;2023-07-16T01:03:52;9.90;;;5.00;;
4424;SDS011;2225;53.568;13.266;2023-07-16T01:06:22;12.80;;;3.90;;
4424;SDS011;2225;53.568;13.266;2023-07-16T01:09:02;13.40;;;5.53;;
4424;SDS011;2225;53.568;13.266;2023-07-16T01:11:45;10.93;;;5.00;;
4424;SDS011;2225;53.568;13.266;2023-07-16T01:14:14;10.00;;;4.67;;
4424;SDS011;2225;53.568;13.266;2023-07-16T01:16:43;8.20;;;4.40;;
4424;SDS011;2225;53.568;13.266;2023-07-16T01:19:10;9.70;;;4.40;;
4424;SDS011;2225;53.568;13.266;2023-07-16T01:24:59;8.90;;;4.77;;
4424;SDS011;2225;53.568;13.266;2023-07-16T01:27:58;9.07;;;4.97;;
4424;SDS011;2225;53.568;13.266;2023-07-16T01:30:37;13.00;;;4.83;;
4424;SDS011;2225;53.568;13.266;2023-07-16T01:33:05;8.63;;;4.87;;
4424;SDS011;2225;53.568;13.266;2023-07-16T01:35:36;12.97;;;5.30;;
4424;SDS011;2225;53.568;13.266;2023-07-16T01:38:05;9.40;;;5.40;;
4424;SDS011;2225;53.568;13.266;2023-07-16T01:40:34;9.80;;;4.80;;
4424;SDS011;2225;53.568;13.266;2023-07-16T01:43:02;9.13;;;4.93;;
4424;SDS011;2225;53.568;13.266;2023-07-16T01:45:28;8.80;;;4.63;;
4424;SDS011;2225;53.568;13.266;2023-07-16T01:48:17;9.10;;;5.00;;
4424;SDS011;2225;53.568;13.266;2023-07-16T01:50:56;9.73;;;5.23;;
4424;SDS011;2225;53.568;13.266;2023-07-16T01:53:23;10.33;;;5.07;;
4424;SDS011;2225;53.568;13.266;2023-07-16T01:55:50;11.77;;;5.57;;
4424;SDS011;2225;53.568;13.266;2023-07-16T01:58:17;9.40;;;5.43;;
4424;SDS011;2225;53.568;13.266;2023-07-16T02:00:44;10.07;;;5.60;;
4424;SDS011;2225;53.568;13.266;2023-07-16T02:03:11;12.97;;;5.70;;
4424;SDS011;2225;53.568;13.266;2023-07-16T02:05:39;14.33;;;6.00;;
4424;SDS011;2225;53.568;13.266;2023-07-16T02:08:06;8.90;;;4.70;;
4424;SDS011;2225;53.568;13.266;2023-07-16T02:10:33;17.00;;;5.87;;
4424;SDS011;2225;53.568;13.266;2023-07-16T02:13:01;8.87;;;4.50;;
4424;SDS011;2225;53.568;13.266;2023-07-16T02:15:28;8.47;;;4.57;;
4424;SDS011;2225;53.568;13.266;2023-07-16T02:17:55;10.37;;;5.37;;
4424;SDS011;2225;53.568;13.266;2023-07-16T02:20:22;10.43;;;5.07;;
4424;SDS011;2225;53.568;13.266;2023-07-16T02:22:49;9.10;;;5.07;;
4424;SDS011;2225;53.568;13.266;2023-07-16T02:25:16;13.97;;;5.73;;
4424;SDS011;2225;53.568;13.266;2023-07-16T02:27:46;9.47;;;5.53;;
4424;SDS011;2225;53.568;13.266;2023-07-16T02:30:16;9.13;;;5.80;;
4424;SDS011;2225;53.568;13.266;2023-07-16T02:32:43;9.43;;;5.33;;
4424;SDS011;2225;53.568;13.266;2023-07-16T02:35:10;13.27;;;5.83;;
4424;SDS011;2225;53.568;13.266;2023-07-16T02:37:37;11.63;;;5.20;;
4424;SDS011;2225;53.568;13.266;2023-07-16T02:40:05;11.90;;;6.20;;
4424;SDS011;2225;53.568;13.266;2023-07-16T02:42:34;10.97;;;5.37;;
4424;SDS011;2225;53.568;13.266;2023-07-16T02:45:01;8.80;;;4.70;;
4424;SDS011;2225;53.568;13.266;2023-07-16T02:47:28;11.17;;;5.60;;
4424;SDS011;2225;53.568;13.266;2023-07-16T02:49:54;10.07;;;5.00;;
4424;SDS011;2225;53.568;13.266;2023-07-16T02:52:21;8.67;;;4.90;;
4424;SDS011;2225;53.568;13.266;2023-07-16T02:54:48;16.60;;;4.47;;
4424;SDS011;2225;53.568;13.266;2023-07-16T02:57:15;10.83;;;5.20;;
4424;SDS011;2225;53.568;13.266;2023-07-16T02:59:42;9.73;;;4.50;;
4424;SDS011;2225;53.568;13.266;2023-07-16T03:02:10;9.40;;;4.83;;
4424;SDS011;2225;53.568;13.266;2023-07-16T03:04:37;12.13;;;5.10;;
4424;SDS011;2225;53.568;13.266;2023-07-16T03:07:04;12.93;;;5.23;;
4424;SDS011;2225;53.568;13.266;2023-07-16T03:09:31;9.37;;;4.80;;
4424;SDS011;2225;53.568;13.266;2023-07-16T03:11:58;9.50;;;4.63;;
4424;SDS011;2225;53.568;13.266;2023-07-16T03:14:26;9.70;;;4.70;;
4424;SDS011;2225;53.568;13.266;2023-07-16T03:16:53;9.33;;;4.43;;
4424;SDS011;2225;53.568;13.266;2023-07-16T03:19:20;15.40;;;5.33;;
4424;SDS011;2225;53.568;13.266;2023-07-16T03:21:47;10.70;;;5.50;;
4424;SDS011;2225;53.568;13.266;2023-07-16T03:24:16;11.90;;;4.50;;
4424;SDS011;2225;53.568;13.266;2023-07-16T03:26:43;9.60;;;4.70;;
4424;SDS011;2225;53.568;13.266;2023-07-16T03:29:10;11.20;;;5.10;;
4424;SDS011;2225;53.568;13.266;2023-07-16T03:31:37;8.97;;;4.70;;
4424;SDS011;2225;53.568;13.266;2023-07-16T03:34:04;15.67;;;5.53;;
4424;SDS011;2225;53.568;13.266;2023-07-16T03:36:31;13.60;;;5.30;;
4424;SDS011;2225;53.568;13.266;2023-07-16T03:38:59;13.17;;;4.70;;
4424;SDS011;2225;53.568;13.266;2023-07-16T03:41:26;8.43;;;4.80;;
4424;SDS011;2225;53.568;13.266;2023-07-16T03:43:53;9.63;;;4.40;;
4424;SDS011;2225;53.568;13.266;2023-07-16T03:46:20;10.33;;;4.90;;
4424;SDS011;2225;53.568;13.266;2023-07-16T03:48:47;11.90;;;4.00;;
4424;SDS011;2225;53.568;13.266;2023-07-16T03:51:14;9.73;;;4.93;;
4424;SDS011;2225;53.568;13.266;2023-07-16T03:53:43;11.07;;;5.00;;
4424;SDS011;2225;53.568;13.266;2023-07-16T03:56:10;9.43;;;4.70;;
4424;SDS011;2225;53.568;13.266;2023-07-16T03:58:37;12.40;;;4.97;;
4424;SDS011;2225;53.568;13.266;2023-07-16T04:01:05;10.10;;;4.67;;
4424;SDS011;2225;53.568;13.266;2023-07-16T04:03:32;10.37;;;5.00;;
4424;SDS011;2225;53.568;13.266;2023-07-16T04:06:00;11.70;;;5.33;;
4424;SDS011;2225;53.568;13.266;2023-07-16T04:08:31;12.07;;;5.60;;
4424;SDS011;2225;53.568;13.266;2023-07-16T04:10:58;9.00;;;4.23;;
4424;SDS011;2225;53.568;13.266;2023-07-16T04:13:25;10.70;;;5.40;;
4424;SDS011;2225;53.568;13.266;2023-07-16T04:15:52;10.30;;;5.03;;
4424;SDS011;2225;53.568;13.266;2023-07-16T04:18:21;11.27;;;5.00;;
4424;SDS011;2225;53.568;13.266;2023-07-16T04:20:48;11.40;;;5.17;;
4424;SDS011;2225;53.568;13.266;2023-07-16T04:23:15;10.53;;;5.70;;
4424;SDS011;2225;53.568;13.266;2023-07-16T04:25:42;13.70;;;5.47;;
4424;SDS011;2225;53.568;13.266;2023-07-16T04:28:12;11.43;;;5.43;;
4424;SDS011;2225;53.568;13.266;2023-07-16T04:30:39;13.07;;;5.47;;
4424;SDS011;2225;53.568;13.266;2023-07-16T04:33:06;13.53;;;5.17;;
4424;SDS011;2225;53.568;13.266;2023-07-16T04:35:33;11.40;;;4.40;;
4424;SDS011;2225;53.568;13.266;2023-07-16T04:38:00;14.00;;;5.80;;
4424;SDS011;2225;53.568;13.266;2023-07-16T04:40:30;10.67;;;5.10;;
4424;SDS011;2225;53.568;13.266;2023-07-16T04:42:57;10.57;;;5.47;;
4424;SDS011;2225;53.568;13.266;2023-07-16T04:45:24;11.50;;;5.33;;
4424;SDS011;2225;53.568;13.266;2023-07-16T04:47:51;12.60;;;5.93;;
4424;SDS011;2225;53.568;13.266;2023-07-16T04:50:18;12.70;;;5.20;;
4424;SDS011;2225;53.568;13.266;2023-07-16T04:52:45;9.03;;;5.00;;
4424;SDS011;2225;53.568;13.266;2023-07-16T04:55:12;13.03;;;5.37;;
4424;SDS011;2225;53.568;13.266;2023-07-16T04:57:39;10.60;;;5.23;;
4424;SDS011;2225;53.568;13.266;2023-07-16T05:00:06;11.17;;;5.33;;
4424;SDS011;2225;53.568;13.266;2023-07-16T05:02:34;11.40;;;5.60;;
4424;SDS011;2225;53.568;13.266;2023-07-16T05:05:01;10.50;;;5.47;;
4424;SDS011;2225;53.568;13.266;2023-07-16T05:07:28;13.13;;;5.07;;
4424;SDS011;2225;53.568;13.266;2023-07-16T05:09:55;8.83;;;4.77;;
4424;SDS011;2225;53.568;13.266;2023-07-16T05:12:22;9.60;;;5.00;;
4424;SDS011;2225;53.568;13.266;2023-07-16T05:14:49;10.70;;;5.20;;
4424;SDS011;2225;53.568;13.266;2023-07-16T05:17:17;11.40;;;5.47;;
4424;SDS011;2225;53.568;13.266;2023-07-16T05:19:44;13.60;;;5.20;;
4424;SDS011;2225;53.568;13.266;2023-07-16T05:22:11;10.17;;;5.40;;
4424;SDS011;2225;53.568;13.266;2023-07-16T05:24:38;13.83;;;4.77;;
4424;SDS011;2225;53.568;13.266;2023-07-16T05:27:05;10.80;;;4.83;;
4424;SDS011;2225;53.568;13.266;2023-07-16T05:29:32;9.93;;;4.80;;
4424;SDS011;2225;53.568;13.266;2023-07-16T05:31:59;9.50;;;5.00;;
4424;SDS011;2225;53.568;13.266;2023-07-16T05:34:26;9.63;;;4.50;;
4424;SDS011;2225;53.568;13.266;2023-07-16T05:36:53;10.90;;;5.20;;
4424;SDS011;2225;53.568;13.266;2023-07-16T05:39:21;13.90;;;5.47;;
4424;SDS011;2225;53.568;13.266;2023-07-16T05:41:48;12.37;;;5.10;;
4424;SDS011;2225;53.568;13.266;2023-07-16T05:44:15;10.03;;;5.20;;
4424;SDS011;2225;53.568;13.266;2023-07-16T05:46:42;16.50;;;4.87;;
4424;SDS011;2225;53.568;13.266;2023-07-16T05:49:10;7.50;;;3.80;;
4424;SDS011;2225;53.568;13.266;2023-07-16T05:51:36;10.60;;;4.87;;
4424;SDS011;2225;53.568;13.266;2023-07-16T05:54:03;9.93;;;4.43;;
4424;SDS011;2225;53.568;13.266;2023-07-16T05:56:30;10.80;;;4.30;;
4424;SDS011;2225;53.568;13.266;2023-07-16T05:58:57;9.17;;;4.30;;
4424;SDS011;2225;53.568;13.266;2023-07-16T06:01:24;8.23;;;4.10;;
4424;SDS011;2225;53.568;13.266;2023-07-16T06:03:51;10.17;;;4.53;;
4424;SDS011;2225;53.568;13.266;2023-07-16T06:06:18;16.83;;;3.63;;
4424;SDS011;2225;53.568;13.266;2023-07-16T06:08:45;8.80;;;3.70;;
4424;SDS011;2225;53.568;13.266;2023-07-16T06:11:12;10.60;;;3.50;;
4424;SDS011;2225;53.568;13.266;2023-07-16T06:13:39;7.33;;;3.33;;
4424;SDS011;2225;53.568;13.266;2023-07-16T06:16:06;8.30;;;2.90;;
4424;SDS011;2225;53.568;13.266;2023-07-16T06:18:33;7.87;;;2.70;;
4424;SDS011;2225;53.568;13.266;2023-07-16T06:21:00;8.90;;;2.73;;
4424;SDS011;2225;53.568;13.266;2023-07-16T06:23:27;8.60;;;2.40;;
4424;SDS011;2225;53.568;13.266;2023-07-16T06:25:55;9.20;;;3.00;;
4424;SDS011;2225;53.568;13.266;2023-07-16T06:28:22;16.53;;;3.07;;
4424;SDS011;2225;53.568;13.266;2023-07-16T06:30:49;7.53;;;2.33;;
4424;SDS011;2225;53.568;13.266;2023-07-16T06:33:19;6.97;;;2.40;;
4424;SDS011;2225;53.568;13.266;2023-07-16T06:35:47;10.13;;;2.37;;
4424;SDS011;2225;53.568;13.266;2023-07-16T06:38:14;6.90;;;2.37;;
4424;SDS011;2225;53.568;13.266;2023-07-16T06:40:47;7.73;;;2.30;;
4424;SDS011;2225;53.568;13.266;2023-07-16T06:43:15;9.60;;;2.30;;
4424;SDS011;2225;53.568;13.266;2023-07-16T06:45:43;7.13;;;2.60;;
4424;SDS011;2225;53.568;13.266;2023-07-16T06:48:10;7.93;;;2.30;;
4424;SDS011;2225;53.568;13.266;2023-07-16T06:50:37;8.80;;;2.30;;
4424;SDS011;2225;53.568;13.266;2023-07-16T06:53:04;8.33;;;2.93;;
4424;SDS011;2225;53.568;13.266;2023-07-16T06:55:31;7.97;;;2.23;;
4424;SDS011;2225;53.568;13.266;2023-07-16T06:57:59;8.70;;;2.50;;
4424;SDS011;2225;53.568;13.266;2023-07-16T07:00:27;6.20;;;2.20;;
4424;SDS011;2225;53.568;13.266;2023-07-16T07:02:54;10.40;;;3.10;;
4424;SDS011;2225;53.568;13.266;2023-07-16T07:05:21;9.10;;;2.97;;
4424;SDS011;2225;53.568;13.266;2023-07-16T07:07:48;7.30;;;2.13;;
4424;SDS011;2225;53.568;13.266;2023-07-16T07:10:15;7.63;;;2.23;;
4424;SDS011;2225;53.568;13.266;2023-07-16T07:12:42;6.97;;;2.10;;
4424;SDS011;2225;53.568;13.266;2023-07-16T07:15:09;19.73;;;2.47;;
4424;SDS011;2225;53.568;13.266;2023-07-16T07:17:36;11.20;;;2.30;;
4424;SDS011;2225;53.568;13.266;2023-07-16T07:20:03;9.10;;;2.07;;
4424;SDS011;2225;53.568;13.266;2023-07-16T07:22:31;7.97;;;2.90;;
4424;SDS011;2225;53.568;13.266;2023-07-16T07:24:58;6.10;;;1.63;;
4424;SDS011;2225;53.568;13.266;2023-07-16T07:27:25;10.07;;;3.33;;
4424;SDS011;2225;53.568;13.266;2023-07-16T07:29:52;7.07;;;2.10;;
4424;SDS011;2225;53.568;13.266;2023-07-16T07:32:21;7.27;;;2.00;;
4424;SDS011;2225;53.568;13.266;2023-07-16T07:34:48;10.07;;;2.50;;
4424;SDS011;2225;53.568;13.266;2023-07-16T07:37:15;5.83;;;1.80;;
4424;SDS011;2225;53.568;13.266;2023-07-16T07:39:42;6.90;;;2.07;;
4424;SDS011;2225;53.568;13.266;2023-07-16T07:42:11;9.20;;;2.00;;
4424;SDS011;2225;53.568;13.266;2023-07-16T07:44:38;8.00;;;2.20;;
4424;SDS011;2225;53.568;13.266;2023-07-16T07:47:05;7.20;;;1.83;;
4424;SDS011;2225;53.568;13.266;2023-07-16T07:49:34;7.00;;;2.13;;
4424;SDS011;2225;53.568;13.266;2023-07-16T07:52:01;7.80;;;1.93;;
4424;SDS011;2225;53.568;13.266;2023-07-16T07:54:30;7.60;;;2.40;;
4424;SDS011;2225;53.568;13.266;2023-07-16T07:57:00;5.80;;;1.90;;
4424;SDS011;2225;53.568;13.266;2023-07-16T07:59:32;9.93;;;2.40;;
4424;SDS011;2225;53.568;13.266;2023-07-16T08:01:59;8.53;;;2.27;;
4424;SDS011;2225;53.568;13.266;2023-07-16T08:04:28;9.40;;;2.33;;
4424;SDS011;2225;53.568;13.266;2023-07-16T08:06:58;8.13;;;2.10;;
4424;SDS011;2225;53.568;13.266;2023-07-16T08:09:26;6.93;;;2.10;;
4424;SDS011;2225;53.568;13.266;2023-07-16T08:11:53;5.40;;;2.03;;
4424;SDS011;2225;53.568;13.266;2023-07-16T08:14:20;6.00;;;1.73;;
4424;SDS011;2225;53.568;13.266;2023-07-16T08:16:47;6.10;;;1.93;;
4424;SDS011;2225;53.568;13.266;2023-07-16T08:19:14;8.33;;;2.37;;
4424;SDS011;2225;53.568;13.266;2023-07-16T08:21:41;7.23;;;1.97;;
4424;SDS011;2225;53.568;13.266;2023-07-16T08:24:09;8.30;;;2.10;;
4424;SDS011;2225;53.568;13.266;2023-07-16T08:26:36;6.93;;;1.70;;
4424;SDS011;2225;53.568;13.266;2023-07-16T08:29:03;7.13;;;1.90;;
4424;SDS011;2225;53.568;13.266;2023-07-16T08:31:31;7.33;;;2.40;;
4424;SDS011;2225;53.568;13.266;2023-07-16T08:33:58;15.80;;;2.50;;
4424;SDS011;2225;53.568;13.266;2023-07-16T08:36:29;7.13;;;2.40;;
4424;SDS011;2225;53.568;13.266;2023-07-16T08:38:56;6.73;;;2.10;;
4424;SDS011;2225;53.568;13.266;2023-07-16T08:41:23;6.83;;;2.00;;
4424;SDS011;2225;53.568;13.266;2023-07-16T08:43:51;6.47;;;1.63;;
4424;SDS011;2225;53.568;13.266;2023-07-16T08:46:18;8.00;;;1.90;;
4424;SDS011;2225;53.568;13.266;2023-07-16T08:48:46;7.53;;;2.20;;
4424;SDS011;2225;53.568;13.266;2023-07-16T08:51:14;10.23;;;2.57;;
4424;SDS011;2225;53.568;13.266;2023-07-16T08:53:42;10.50;;;2.87;;
4424;SDS011;2225;53.568;13.266;2023-07-16T08:56:09;7.63;;;2.13;;
4424;SDS011;2225;53.568;13.266;2023-07-16T08:58:36;5.63;;;1.60;;
4424;SDS011;2225;53.568;13.266;2023-07-16T09:01:05;8.60;;;2.23;;
4424;SDS011;2225;53.568;13.266;2023-07-16T09:03:32;6.10;;;1.93;;
4424;SDS011;2225;53.568;13.266;2023-07-16T09:05:59;6.23;;;2.03;;
4424;SDS011;2225;53.568;13.266;2023-07-16T09:08:28;9.40;;;2.20;;
4424;SDS011;2225;53.568;13.266;2023-07-16T09:10:55;8.27;;;2.10;;
4424;SDS011;2225;53.568;13.266;2023-07-16T09:13:23;7.80;;;2.40;;
4424;SDS011;2225;53.568;13.266;2023-07-16T09:15:55;6.83;;;2.10;;
4424;SDS011;2225;53.568;13.266;2023-07-16T09:18:24;7.50;;;2.33;;
4424;SDS011;2225;53.568;13.266;2023-07-16T09:20:56;7.43;;;2.17;;
4424;SDS011;2225;53.568;13.266;2023-07-16T09:23:29;7.63;;;2.07;;
4424;SDS011;2225;53.568;13.266;2023-07-16T09:25:57;6.97;;;2.03;;
4424;SDS011;2225;53.568;13.266;2023-07-16T09:28:24;9.57;;;2.30;;
4424;SDS011;2225;53.568;13.266;2023-07-16T09:30:51;9.57;;;2.53;;
4424;SDS011;2225;53.568;13.266;2023-07-16T09:33:20;6.50;;;2.33;;
4424;SDS011;2225;53.568;13.266;2023-07-16T09:35:49;13.93;;;2.10;;
4424;SDS011;2225;53.568;13.266;2023-07-16T09:38:17;8.13;;;2.20;;
4424;SDS011;2225;53.568;13.266;2023-07-16T09:40:45;6.13;;;2.23;;
4424;SDS011;2225;53.568;13.266;2023-07-16T09:43:12;5.80;;;2.00;;
4424;SDS011;2225;53.568;13.266;2023-07-16T09:45:39;7.20;;;2.10;;
4424;SDS011;2225;53.568;13.266;2023-07-16T09:48:08;10.07;;;2.23;;
4424;SDS011;2225;53.568;13.266;2023-07-16T09:50:35;6.87;;;2.40;;
4424;SDS011;2225;53.568;13.266;2023-07-16T09:53:03;7.00;;;2.30;;
4424;SDS011;2225;53.568;13.266;2023-07-16T09:55:31;8.60;;;2.33;;
4424;SDS011;2225;53.568;13.266;2023-07-16T09:58:01;6.90;;;2.47;;
4424;SDS011;2225;53.568;13.266;2023-07-16T10:00:33;7.63;;;2.10;;
4424;SDS011;2225;53.568;13.266;2023-07-16T10:03:02;8.60;;;3.00;;
4424;SDS011;2225;53.568;13.266;2023-07-16T10:05:35;5.73;;;1.83;;
4424;SDS011;2225;53.568;13.266;2023-07-16T10:08:14;6.13;;;2.07;;
4424;SDS011;2225;53.568;13.266;2023-07-16T10:10:44;8.30;;;2.23;;
4424;SDS011;2225;53.568;13.266;2023-07-16T10:13:21;8.67;;;2.07;;
4424;SDS011;2225;53.568;13.266;2023-07-16T10:15:53;12.17;;;2.60;;
4424;SDS011;2225;53.568;13.266;2023-07-16T10:18:49;7.27;;;2.27;;
4424;SDS011;2225;53.568;13.266;2023-07-16T10:21:23;9.10;;;2.40;;
4424;SDS011;2225;53.568;13.266;2023-07-16T10:23:57;8.50;;;2.57;;
4424;SDS011;2225;53.568;13.266;2023-07-16T10:26:26;6.00;;;2.20;;
4424;SDS011;2225;53.568;13.266;2023-07-16T10:28:55;6.33;;;2.00;;
4424;SDS011;2225;53.568;13.266;2023-07-16T10:31:23;7.27;;;2.27;;
4424;SDS011;2225;53.568;13.266;2023-07-16T10:33:58;6.50;;;2.30;;
4424;SDS011;2225;53.568;13.266;2023-07-16T10:36:50;8.00;;;2.60;;
4424;SDS011;2225;53.568;13.266;2023-07-16T10:39:17;6.70;;;2.47;;
4424;SDS011;2225;53.568;13.266;2023-07-16T10:41:44;6.50;;;2.50;;
4424;SDS011;2225;53.568;13.266;2023-07-16T10:44:14;7.33;;;3.00;;
4424;SDS011;2225;53.568;13.266;2023-07-16T10:46:42;6.93;;;2.23;;
4424;SDS011;2225;53.568;13.266;2023-07-16T10:49:09;9.03;;;2.83;;
4424;SDS011;2225;53.568;13.266;2023-07-16T10:51:36;15.73;;;2.50;;
4424;SDS011;2225;53.568;13.266;2023-07-16T10:54:03;7.90;;;2.80;;
4424;SDS011;2225;53.568;13.266;2023-07-16T10:56:37;6.90;;;2.70;;
4424;SDS011;2225;53.568;13.266;2023-07-16T10:59:04;10.00;;;3.37;;
4424;SDS011;2225;53.568;13.266;2023-07-16T11:01:33;6.70;;;2.40;;
4424;SDS011;2225;53.568;13.266;2023-07-16T11:04:01;6.50;;;2.73;;
4424;SDS011;2225;53.568;13.266;2023-07-16T11:06:28;7.90;;;2.70;;
4424;SDS011;2225;53.568;13.266;2023-07-16T11:08:55;6.20;;;2.33;;
4424;SDS011;2225;53.568;13.266;2023-07-16T11:11:35;7.83;;;2.47;;
4424;SDS011;2225;53.568;13.266;2023-07-16T11:14:03;6.07;;;2.53;;
4424;SDS011;2225;53.568;13.266;2023-07-16T11:16:35;6.47;;;2.77;;
4424;SDS011;2225;53.568;13.266;2023-07-16T11:19:06;5.83;;;2.20;;
4424;SDS011;2225;53.568;13.266;2023-07-16T11:21:33;7.87;;;2.80;;
4424;SDS011;2225;53.568;13.266;2023-07-16T11:24:07;7.40;;;2.83;;
4424;SDS011;2225;53.568;13.266;2023-07-16T11:26:51;7.13;;;2.37;;
4424;SDS011;2225;53.568;13.266;2023-07-16T11:29:19;8.00;;;2.53;;
4424;SDS011;2225;53.568;13.266;2023-07-16T11:31:52;7.57;;;2.67;;
4424;SDS011;2225;53.568;13.266;2023-07-16T11:34:20;9.73;;;2.50;;
4424;SDS011;2225;53.568;13.266;2023-07-16T11:36:48;11.30;;;3.10;;
4424;SDS011;2225;53.568;13.266;2023-07-16T11:39:16;7.07;;;2.93;;
4424;SDS011;2225;53.568;13.266;2023-07-16T11:41:54;7.07;;;2.83;;
4424;SDS011;2225;53.568;13.266;2023-07-16T11:44:24;6.20;;;2.30;;
4424;SDS011;2225;53.568;13.266;2023-07-16T11:46:51;10.23;;;2.97;;
4424;SDS011;2225;53.568;13.266;2023-07-16T11:49:18;7.20;;;2.43;;
4424;SDS011;2225;53.568;13.266;2023-07-16T11:51:45;10.20;;;3.00;;
4424;SDS011;2225;53.568;13.266;2023-07-16T11:54:12;6.27;;;2.27;;
4424;SDS011;2225;53.568;13.266;2023-07-16T11:56:39;17.57;;;2.97;;
4424;SDS011;2225;53.568;13.266;2023-07-16T11:59:06;8.43;;;2.63;;
4424;SDS011;2225;53.568;13.266;2023-07-16T12:01:33;5.33;;;2.20;;
4424;SDS011;2225;53.568;13.266;2023-07-16T12:04:00;7.10;;;2.23;;
4424;SDS011;2225;53.568;13.266;2023-07-16T12:06:27;6.70;;;2.37;;
4424;SDS011;2225;53.568;13.266;2023-07-16T12:08:54;7.17;;;2.80;;
4424;SDS011;2225;53.568;13.266;2023-07-16T12:11:21;6.10;;;2.43;;
4424;SDS011;2225;53.568;13.266;2023-07-16T12:13:48;8.40;;;2.10;;
4424;SDS011;2225;53.568;13.266;2023-07-16T12:16:15;8.53;;;2.70;;
4424;SDS011;2225;53.568;13.266;2023-07-16T12:18:42;6.23;;;2.67;;
4424;SDS011;2225;53.568;13.266;2023-07-16T12:21:09;9.33;;;2.53;;
4424;SDS011;2225;53.568;13.266;2023-07-16T12:23:36;5.57;;;2.30;;
4424;SDS011;2225;53.568;13.266;2023-07-16T12:26:03;6.53;;;2.30;;
4424;SDS011;2225;53.568;13.266;2023-07-16T12:28:30;7.13;;;2.60;;
4424;SDS011;2225;53.568;13.266;2023-07-16T12:30:57;6.67;;;2.43;;
4424;SDS011;2225;53.568;13.266;2023-07-16T12:33:24;8.37;;;2.70;;
4424;SDS011;2225;53.568;13.266;2023-07-16T12:35:51;6.00;;;2.60;;
4424;SDS011;2225;53.568;13.266;2023-07-16T12:38:20;11.00;;;2.27;;
4424;SDS011;2225;53.568;13.266;2023-07-16T12:40:48;6.97;;;2.47;;
4424;SDS011;2225;53.568;13.266;2023-07-16T12:43:15;7.30;;;2.60;;
4424;SDS011;2225;53.568;13.266;2023-07-16T12:45:42;8.57;;;2.50;;
4424;SDS011;2225;53.568;13.266;2023-07-16T12:48:09;11.23;;;2.93;;
4424;SDS011;2225;53.568;13.266;2023-07-16T12:50:36;5.70;;;2.00;;
4424;SDS011;2225;53.568;13.266;2023-07-16T12:53:03;10.10;;;2.20;;
4424;SDS011;2225;53.568;13.266;2023-07-16T12:55:30;10.10;;;2.83;;
4424;SDS011;2225;53.568;13.266;2023-07-16T12:57:58;7.00;;;2.40;;
4424;SDS011;2225;53.568;13.266;2023-07-16T13:00:25;6.37;;;2.60;;
4424;SDS011;2225;53.568;13.266;2023-07-16T13:02:52;7.13;;;2.80;;
4424;SDS011;2225;53.568;13.266;2023-07-16T13:05:19;11.53;;;2.23;;
4424;SDS011;2225;53.568;13.266;2023-07-16T13:07:46;9.30;;;2.53;;
4424;SDS011;2225;53.568;13.266;2023-07-16T13:10:13;5.63;;;2.10;;
4424;SDS011;2225;53.568;13.266;2023-07-16T13:12:49;5.10;;;2.10;;
4424;SDS011;2225;53.568;13.266;2023-07-16T13:15:16;6.80;;;2.53;;
4424;SDS011;2225;53.568;13.266;2023-07-16T13:17:43;13.23;;;2.40;;
4424;SDS011;2225;53.568;13.266;2023-07-16T13:20:10;7.50;;;2.43;;
4424;SDS011;2225;53.568;13.266;2023-07-16T13:22:37;7.37;;;2.53;;
4424;SDS011;2225;53.568;13.266;2023-07-16T13:25:05;7.57;;;2.70;;
4424;SDS011;2225;53.568;13.266;2023-07-16T13:27:32;7.93;;;2.77;;
4424;SDS011;2225;53.568;13.266;2023-07-16T13:29:59;8.70;;;2.27;;
4424;SDS011;2225;53.568;13.266;2023-07-16T13:32:26;7.70;;;2.33;;
4424;SDS011;2225;53.568;13.266;2023-07-16T13:34:53;5.90;;;2.07;;
4424;SDS011;2225;53.568;13.266;2023-07-16T13:37:20;7.23;;;3.00;;
4424;SDS011;2225;53.568;13.266;2023-07-16T13:39:47;5.90;;;2.53;;
4424;SDS011;2225;53.568;13.266;2023-07-16T13:42:14;5.23;;;2.00;;
4424;SDS011;2225;53.568;13.266;2023-07-16T13:44:49;4.97;;;1.80;;
4424;SDS011;2225;53.568;13.266;2023-07-16T13:47:16;6.40;;;2.30;;
4424;SDS011;2225;53.568;13.266;2023-07-16T13:49:43;5.73;;;2.00;;
4424;SDS011;2225;53.568;13.266;2023-07-16T13:52:10;5.67;;;2.00;;
4424;SDS011;2225;53.568;13.266;2023-07-16T13:54:37;6.40;;;1.93;;
4424;SDS011;2225;53.568;13.266;2023-07-16T13:57:07;6.30;;;2.10;;
4424;SDS011;2225;53.568;13.266;2023-07-16T13:59:35;7.20;;;1.90;;
4424;SDS011;2225;53.568;13.266;2023-07-16T14:02:02;6.20;;;2.20;;
4424;SDS011;2225;53.568;13.266;2023-07-16T14:04:30;5.93;;;1.60;;
4424;SDS011;2225;53.568;13.266;2023-07-16T14:06:58;11.90;;;2.90;;
4424;SDS011;2225;53.568;13.266;2023-07-16T14:09:25;5.17;;;1.97;;
4424;SDS011;2225;53.568;13.266;2023-07-16T14:11:52;6.50;;;2.50;;
4424;SDS011;2225;53.568;13.266;2023-07-16T14:14:20;11.20;;;1.80;;
4424;SDS011;2225;53.568;13.266;2023-07-16T14:16:48;5.50;;;1.83;;
4424;SDS011;2225;53.568;13.266;2023-07-16T14:19:16;5.00;;;1.80;;
4424;SDS011;2225;53.568;13.266;2023-07-16T14:21:43;5.93;;;2.20;;
4424;SDS011;2225;53.568;13.266;2023-07-16T14:24:10;7.77;;;2.27;;
4424;SDS011;2225;53.568;13.266;2023-07-16T14:26:37;7.50;;;2.53;;
4424;SDS011;2225;53.568;13.266;2023-07-16T14:29:04;7.50;;;2.07;;
4424;SDS011;2225;53.568;13.266;2023-07-16T14:31:31;5.70;;;2.20;;
4424;SDS011;2225;53.568;13.266;2023-07-16T14:33:59;6.67;;;2.10;;
4424;SDS011;2225;53.568;13.266;2023-07-16T14:36:26;5.70;;;2.23;;
4424;SDS011;2225;53.568;13.266;2023-07-16T14:38:53;10.20;;;2.30;;
4424;SDS011;2225;53.568;13.266;2023-07-16T14:41:21;6.60;;;2.07;;
4424;SDS011;2225;53.568;13.266;2023-07-16T14:43:48;6.07;;;2.10;;
4424;SDS011;2225;53.568;13.266;2023-07-16T14:46:16;7.97;;;2.17;;
4424;SDS011;2225;53.568;13.266;2023-07-16T14:48:44;7.00;;;2.23;;
4424;SDS011;2225;53.568;13.266;2023-07-16T14:51:11;5.50;;;1.90;;
4424;SDS011;2225;53.568;13.266;2023-07-16T14:53:39;6.80;;;2.30;;
4424;SDS011;2225;53.568;13.266;2023-07-16T14:56:06;6.83;;;2.43;;
4424;SDS011;2225;53.568;13.266;2023-07-16T14:58:33;5.70;;;1.90;;
4424;SDS011;2225;53.568;13.266;2023-07-16T15:01:03;8.17;;;2.07;;
4424;SDS011;2225;53.568;13.266;2023-07-16T15:03:34;6.27;;;2.17;;
4424;SDS011;2225;53.568;13.266;2023-07-16T15:06:03;5.57;;;2.03;;